Time;durP1;ratioP1;P1;durP2;ratioP2;P2;SDS_P1;SDS_P2;PMS_P1;PMS_P2;Temp;Humidity;BMP_temperature;BMP_pressure;BME280_temperature;BME280_humidity;BME280_pressure;Samples;Min_cycle;Max_cycle;Signal;HPM_P1;HPM_P2
2022/04/21 00:00:41;;;;;;;14.02;8.23;;;7.00;99.90;;;;;;4953857;28;20074;-60
2022/04/21 00:03:08;;;;;;;13.57;8.52;;;6.90;99.90;;;;;;4954193;28;20046;-59
2022/04/21 00:05:34;;;;;;;13.68;7.95;;;6.90;99.90;;;;;;4951131;28;20043;-60
2022/04/21 00:08:00;;;;;;;13.60;8.50;;;6.80;99.90;;;;;;4939207;28;20067;-60
2022/04/21 00:10:27;;;;;;;12.25;7.93;;;6.80;99.90;;;;;;4954210;28;20371;-60
2022/04/21 00:12:54;;;;;;;12.10;7.70;;;6.70;99.90;;;;;;4938720;28;20048;-60
2022/04/21 00:15:20;;;;;;;14.95;7.88;;;6.60;99.90;;;;;;4930821;29;20035;-60
2022/04/21 00:17:45;;;;;;;12.55;7.80;;;6.60;99.90;;;;;;4953733;28;20039;-60
2022/04/21 00:20:12;;;;;;;13.30;8.25;;;6.60;99.90;;;;;;4954363;28;20498;-60
2022/04/21 00:25:22;;;;;;;14.13;8.13;;;6.50;99.90;;;;;;4953830;28;20410;-60
2022/04/21 00:27:48;;;;;;;13.73;8.35;;;6.50;99.90;;;;;;4953899;28;20039;-60
2022/04/21 00:30:16;;;;;;;12.63;7.88;;;6.40;99.90;;;;;;4933915;29;20061;-60
2022/04/21 00:32:42;;;;;;;13.15;8.13;;;6.40;99.90;;;;;;4953131;28;20126;-60
2022/04/21 00:35:12;;;;;;;14.10;8.15;;;6.40;99.90;;;;;;4954274;28;20035;-60
2022/04/21 00:37:56;;;;;;;11.73;7.93;;;6.30;99.90;;;;;;4947288;28;20066;-60
2022/04/21 00:40:26;;;;;;;18.58;8.07;;;6.30;99.90;;;;;;4946378;28;20049;-60
2022/04/21 00:42:52;;;;;;;14.32;7.90;;;6.30;99.90;;;;;;4953449;28;20035;-59
2022/04/21 00:45:17;;;;;;;13.88;8.57;;;6.50;99.90;;;;;;4950668;28;20123;-59
2022/04/21 00:47:45;;;;;;;12.85;8.15;;;6.60;99.90;;;;;;4928105;28;20535;-60
2022/04/21 00:50:25;;;;;;;14.63;8.90;;;6.70;99.90;;;;;;4953601;28;20027;-60
2022/04/21 00:52:52;;;;;;;14.77;9.25;;;6.70;99.90;;;;;;4953314;28;20409;-60
2022/04/21 00:55:19;;;;;;;11.68;8.57;;;6.70;99.90;;;;;;4947449;28;20054;-60
2022/04/21 00:57:47;;;;;;;14.32;8.23;;;6.60;99.90;;;;;;4953380;28;20138;-60
2022/04/21 01:00:13;;;;;;;12.50;8.18;;;6.50;99.90;;;;;;4953789;28;20517;-60
2022/04/21 01:02:55;;;;;;;13.35;7.85;;;6.40;99.90;;;;;;4947673;28;20043;-60
2022/04/21 01:05:31;;;;;;;;;;;6.20;99.90;;;;;;4942919;28;20075;-60
2022/04/21 01:08:05;;;;;;;14.75;7.88;;;6.10;99.90;;;;;;4953239;28;19925;-59
2022/04/21 01:10:33;;;;;;;12.40;8.20;;;6.00;99.90;;;;;;4953844;28;20074;-59
2022/04/21 01:12:59;;;;;;;12.48;8.50;;;5.90;99.90;;;;;;4938335;28;20035;-59
2022/04/21 01:15:25;;;;;;;13.13;8.20;;;5.90;99.90;;;;;;4948689;28;20042;-60
2022/04/21 01:17:54;;;;;;;12.32;7.90;;;5.80;99.90;;;;;;4952839;28;20043;-60
2022/04/21 01:20:24;;;;;;;14.55;8.88;;;5.80;99.90;;;;;;4942558;28;20066;-61
2022/04/21 01:22:51;;;;;;;13.32;8.98;;;5.80;99.90;;;;;;4952643;28;20043;-60
2022/04/21 01:25:16;;;;;;;16.77;9.88;;;5.80;99.90;;;;;;4953555;28;20193;-60
2022/04/21 01:27:43;;;;;;;15.52;9.45;;;6.00;99.90;;;;;;4951263;28;20650;-58
2022/04/21 01:30:11;;;;;;;15.55;9.60;;;6.20;99.90;;;;;;4944614;28;20051;-59
2022/04/21 01:32:40;;;;;;;16.08;9.27;;;6.30;99.90;;;;;;4949565;28;20094;-59
2022/04/21 01:35:07;;;;;;;13.50;9.18;;;6.30;99.90;;;;;;4953616;28;20046;-60
2022/04/21 01:43:02;;;;;;;13.90;8.25;;;6.40;99.90;;;;;;4952961;29;20055;-60
2022/04/21 01:45:28;;;;;;;12.32;8.20;;;6.30;99.90;;;;;;4936572;28;20035;-60
2022/04/21 01:47:56;;;;;;;15.57;8.80;;;6.10;99.90;;;;;;4951717;28;20046;-60
2022/04/21 01:50:23;;;;;;;13.50;8.93;;;5.90;99.90;;;;;;4953252;28;20070;-60
2022/04/21 01:52:48;;;;;;;13.82;9.57;;;5.90;99.90;;;;;;4938221;28;20098;-60
2022/04/21 01:55:14;;;;;;;15.20;10.18;;;5.90;99.90;;;;;;4940530;28;20035;-60
2022/04/21 01:57:39;;;;;;;13.68;9.60;;;6.00;99.90;;;;;;4952912;28;20036;-59
2022/04/21 02:00:06;;;;;;;14.77;9.77;;;6.00;99.90;;;;;;4953402;29;20117;-60
2022/04/21 02:02:32;;;;;;;16.58;10.45;;;6.10;99.90;;;;;;4945907;28;20051;-61
2022/04/21 02:04:59;;;;;;;15.55;10.32;;;6.10;99.90;;;;;;4937365;28;20066;-60
2022/04/21 02:07:25;;;;;;;17.05;10.73;;;6.30;99.90;;;;;;4952687;28;20043;-60
2022/04/21 02:09:50;;;;;;;19.25;10.77;;;6.40;99.90;;;;;;4948518;28;20965;-60
2022/04/21 02:12:16;;;;;;;18.52;10.70;;;6.40;99.90;;;;;;4952540;28;20050;-60
2022/04/21 02:14:42;;;;;;;20.40;10.95;;;6.50;99.90;;;;;;4952803;28;20447;-60
2022/04/21 02:17:08;;;;;;;20.25;11.05;;;6.40;99.90;;;;;;4951732;29;20042;-60
2022/04/21 02:19:34;;;;;;;18.80;10.98;;;6.40;99.90;;;;;;4942519;28;20123;-60
2022/04/21 02:21:59;;;;;;;16.50;10.52;;;6.40;99.90;;;;;;4950860;28;20046;-60
2022/04/21 02:24:25;;;;;;;16.05;10.95;;;6.40;99.90;;;;;;4952203;28;20043;-60
2022/04/21 02:26:51;;;;;;;15.65;10.50;;;6.30;99.90;;;;;;4947790;28;20046;-60
2022/04/21 02:29:16;;;;;;;17.10;10.60;;;6.40;99.90;;;;;;4949710;28;20115;-60
2022/04/21 02:31:42;;;;;;;18.05;11.05;;;6.40;99.90;;;;;;4952725;28;20048;-60
2022/04/21 02:34:07;;;;;;;17.17;10.80;;;6.30;99.90;;;;;;4949988;28;20043;-60
2022/04/21 02:36:33;;;;;;;18.60;11.18;;;6.30;99.90;;;;;;4943932;28;20485;-59
2022/04/21 02:38:58;;;;;;;21.15;11.45;;;6.30;99.90;;;;;;4952344;28;20489;-60
2022/04/21 02:41:24;;;;;;;15.63;10.45;;;6.20;99.90;;;;;;4954862;28;20385;-60
2022/04/21 02:43:49;;;;;;;18.27;10.68;;;6.20;99.90;;;;;;4945287;28;20043;-60
2022/04/21 02:46:16;;;;;;;20.88;10.77;;;6.20;99.90;;;;;;4955381;28;20050;-60
2022/04/21 02:48:41;;;;;;;17.35;11.43;;;6.10;99.90;;;;;;4955998;28;20499;-60
2022/04/21 02:51:09;;;;;;;18.40;11.23;;;6.00;99.90;;;;;;4948260;28;20046;-59
2022/04/21 02:59:03;;;;;;;19.83;11.63;;;6.00;99.90;;;;;;4943597;28;20040;-60
2022/04/21 03:01:28;;;;;;;18.65;11.98;;;6.00;99.90;;;;;;4950452;28;20189;-61
2022/04/21 03:03:57;;;;;;;17.73;11.68;;;6.00;99.90;;;;;;4954861;28;20413;-61
2022/04/21 03:06:22;;;;;;;17.27;11.68;;;6.00;99.90;;;;;;4955926;29;20054;-60
2022/04/21 03:08:48;;;;;;;22.27;12.93;;;5.90;99.90;;;;;;4943819;28;20043;-60
2022/04/21 03:11:13;;;;;;;19.30;12.25;;;5.80;99.90;;;;;;4951564;28;20031;-60
2022/04/21 03:13:39;;;;;;;18.15;11.32;;;5.80;99.90;;;;;;4955353;28;20047;-60
2022/04/21 03:16:05;;;;;;;21.83;12.75;;;5.80;99.90;;;;;;4939114;29;20046;-60
2022/04/21 03:18:30;;;;;;;21.02;12.25;;;5.70;99.90;;;;;;4948196;28;20043;-60
2022/04/21 03:26:25;;;;;;;20.08;12.65;;;5.40;99.90;;;;;;4949648;28;20102;-61
2022/04/21 03:28:50;;;;;;;22.27;12.90;;;5.30;99.90;;;;;;4954964;28;20557;-60
2022/04/21 03:31:16;;;;;;;22.77;13.50;;;5.20;99.90;;;;;;4955267;29;20125;-59
2022/04/21 03:33:42;;;;;;;26.17;12.98;;;5.10;99.90;;;;;;4944896;28;20515;-60
2022/04/21 03:36:09;;;;;;;22.10;13.05;;;5.00;99.90;;;;;;4949257;28;20466;-60
2022/04/21 03:38:38;;;;;;;24.58;13.52;;;5.00;99.90;;;;;;4951480;29;20047;-60
2022/04/21 03:41:04;;;;;;;23.10;14.23;;;5.10;99.90;;;;;;4948196;28;20070;-60
2022/04/21 03:43:30;;;;;;;22.45;13.50;;;5.00;99.90;;;;;;4943105;28;20031;-60
2022/04/21 03:45:55;;;;;;;23.50;13.93;;;5.00;99.90;;;;;;4953855;28;20406;-60
2022/04/21 03:48:21;;;;;;;23.05;14.00;;;4.90;99.90;;;;;;4954768;28;20505;-60
2022/04/21 03:50:47;;;;;;;24.85;14.27;;;4.80;99.90;;;;;;4944691;28;20043;-59
2022/04/21 03:53:12;;;;;;;21.70;13.88;;;4.70;99.90;;;;;;4944804;28;20495;-60
2022/04/21 03:55:38;;;;;;;22.83;14.13;;;4.70;99.90;;;;;;4950290;28;20039;-60
2022/04/21 03:58:03;;;;;;;23.88;14.63;;;4.70;99.90;;;;;;4953904;29;20532;-60
2022/04/21 04:00:30;;;;;;;25.80;15.70;;;4.70;99.90;;;;;;4943594;28;20066;-60
2022/04/21 04:02:56;;;;;;;25.83;15.73;;;4.70;99.90;;;;;;4948185;28;20061;-60
2022/04/21 04:05:21;;;;;;;24.25;14.63;;;4.80;99.90;;;;;;4949628;28;20039;-59
2022/04/21 04:13:16;;;;;;;22.08;13.35;;;4.60;99.90;;;;;;4953603;29;20051;-60
2022/04/21 04:15:44;;;;;;;24.27;14.18;;;4.50;99.90;;;;;;4941621;28;20039;-59
2022/04/21 04:18:09;;;;;;;21.00;13.43;;;4.40;99.90;;;;;;4954228;28;20046;-60
2022/04/21 04:20:35;;;;;;;26.15;14.00;;;4.40;99.90;;;;;;4954369;29;20406;-60
2022/04/21 04:23:00;;;;;;;20.40;13.35;;;4.40;99.90;;;;;;4948323;28;20039;-60
2022/04/21 04:25:26;;;;;;;24.58;14.25;;;4.30;99.90;;;;;;4944012;28;20122;-59
2022/04/21 04:27:51;;;;;;;21.58;14.32;;;4.30;99.90;;;;;;4950716;28;20125;-59
2022/04/21 04:30:17;;;;;;;23.00;14.25;;;4.40;99.90;;;;;;4937823;28;20066;-61
2022/04/21 04:32:42;;;;;;;22.20;14.18;;;4.40;99.90;;;;;;4950845;28;20047;-59
2022/04/21 04:35:08;;;;;;;22.17;13.90;;;4.40;99.90;;;;;;4954050;29;20047;-60
2022/04/21 04:37:34;;;;;;;26.20;14.43;;;4.50;99.90;;;;;;4942954;28;20040;-58
2022/04/21 04:40:00;;;;;;;25.27;14.38;;;4.50;99.90;;;;;;4944631;28;20032;-60
2022/04/21 04:42:25;;;;;;;21.25;13.70;;;4.50;99.90;;;;;;4951274;28;20043;-60
2022/04/21 04:46:34;;;;;;;24.15;14.23;;;4.60;99.90;;;;;;4953270;28;20414;-58
2022/04/21 04:47:40;;;;;;;19.70;13.80;;;4.60;99.90;;;;;;4943079;28;20059;-58
2022/04/21 04:50:09;;;;;;;22.38;14.55;;;4.70;99.90;;;;;;4941178;28;20047;-57
2022/04/21 04:52:35;;;;;;;22.63;13.98;;;4.70;99.90;;;;;;4949661;28;20047;-58
2022/04/21 04:55:01;;;;;;;19.88;13.45;;;4.80;99.90;;;;;;4950059;29;20071;-58
2022/04/21 04:57:26;;;;;;;22.10;13.77;;;4.80;99.90;;;;;;4940387;28;20043;-58
2022/04/21 04:59:52;;;;;;;21.35;13.85;;;4.70;99.90;;;;;;4950054;28;20039;-59
2022/04/21 05:02:20;;;;;;;23.70;14.45;;;4.80;99.90;;;;;;4949975;29;20043;-59
2022/04/21 05:04:47;;;;;;;22.23;14.20;;;4.90;99.90;;;;;;4946275;28;20054;-57
2022/04/21 05:07:13;;;;;;;24.05;15.00;;;5.00;99.90;;;;;;4947713;28;20530;-58
2022/04/21 05:09:38;;;;;;;20.48;13.70;;;5.10;99.90;;;;;;4935050;28;20414;-58
2022/04/21 05:12:04;;;;;;;23.55;14.40;;;5.20;99.90;;;;;;4941169;28;20042;-58
2022/04/21 05:14:30;;;;;;;22.38;13.90;;;5.30;99.90;;;;;;4948342;28;20043;-58
2022/04/21 05:16:55;;;;;;;22.17;14.27;;;5.40;99.90;;;;;;4949744;28;20078;-58
2022/04/21 05:19:21;;;;;;;22.88;13.10;;;5.60;99.90;;;;;;4949905;29;20187;-57
2022/04/21 05:21:49;;;;;;;21.70;13.75;;;5.60;99.90;;;;;;4944920;28;20047;-58
2022/04/21 05:24:15;;;;;;;22.50;13.65;;;5.70;99.90;;;;;;4937035;28;20115;-58
2022/04/21 05:26:45;;;;;;;24.83;14.52;;;5.80;99.90;;;;;;4950092;28;20039;-60
2022/04/21 05:31:56;;;;;;;21.73;14.38;;;5.90;99.90;;;;;;4951237;28;20071;-60
2022/04/21 05:34:26;;;;;;;22.92;14.15;;;6.00;99.90;;;;;;4952820;28;20046;-61
2022/04/21 05:36:52;;;;;;;25.00;14.30;;;6.00;99.90;;;;;;4953342;29;20470;-61
2022/04/21 05:39:20;;;;;;;21.85;13.73;;;6.10;99.90;;;;;;4944637;28;20070;-60
2022/04/21 05:41:46;;;;;;;23.13;14.65;;;6.20;99.90;;;;;;4950421;28;20035;-62
2022/04/21 05:44:12;;;;;;;27.33;15.20;;;6.30;99.90;;;;;;4952883;28;20569;-60
2022/04/21 05:46:39;;;;;;;21.25;13.93;;;6.40;99.90;;;;;;4948659;28;20051;-61
2022/04/21 05:49:05;;;;;;;23.55;14.10;;;6.50;99.90;;;;;;4950157;28;20035;-61
2022/04/21 05:51:31;;;;;;;23.17;13.80;;;6.60;99.90;;;;;;4953157;28;20482;-61
2022/04/21 05:53:58;;;;;;;20.13;13.15;;;6.60;99.90;;;;;;4952973;29;20044;-60
2022/04/21 05:56:24;;;;;;;22.92;13.25;;;6.70;99.90;;;;;;4942432;28;20089;-61
2022/04/21 05:58:51;;;;;;;24.58;12.98;;;6.80;99.90;;;;;;4952117;28;20098;-59
2022/04/21 06:01:18;;;;;;;22.25;13.07;;;6.80;99.90;;;;;;4953431;29;20070;-62
2022/04/21 06:03:44;;;;;;;21.45;13.05;;;7.00;99.90;;;;;;4939961;28;20047;-60
2022/04/21 06:06:11;;;;;;;23.60;14.57;;;7.10;99.90;;;;;;4938229;29;20533;-61
2022/04/21 06:08:37;;;;;;;20.40;14.05;;;7.20;99.90;;;;;;4952945;28;20082;-58
2022/04/21 06:11:03;;;;;;;20.08;13.02;;;7.20;99.90;;;;;;4951357;28;20043;-58
2022/04/21 06:13:30;;;;;;;25.90;13.43;;;7.30;99.90;;;;;;4940477;28;20421;-60
2022/04/21 06:15:59;;;;;;;19.33;12.85;;;7.30;99.90;;;;;;4953272;28;20066;-60
2022/04/21 06:18:26;;;;;;;19.85;13.05;;;7.40;99.90;;;;;;4956879;29;20110;-60
2022/04/21 06:20:52;;;;;;;22.65;13.38;;;7.50;99.90;;;;;;4946443;28;20035;-61
2022/04/21 06:23:19;;;;;;;21.75;13.00;;;7.60;99.90;;;;;;4950430;28;20508;-60
2022/04/21 06:25:45;;;;;;;18.20;12.45;;;7.70;99.90;;;;;;4956530;28;20091;-60
2022/04/21 06:28:11;;;;;;;17.30;12.10;;;7.80;99.90;;;;;;4953332;28;20043;-60
2022/04/21 06:30:37;;;;;;;21.33;12.10;;;7.90;99.90;;;;;;4948482;28;20264;-61
2022/04/21 06:33:03;;;;;;;21.20;11.70;;;8.00;99.90;;;;;;4954985;28;20068;-61
2022/04/21 06:35:29;;;;;;;21.80;12.15;;;8.20;99.90;;;;;;4953122;28;22561;-60
2022/04/21 06:37:55;;;;;;;19.42;11.02;;;8.30;99.90;;;;;;4932429;28;20383;-60
2022/04/21 06:40:21;;;;;;;20.77;11.05;;;8.40;99.90;;;;;;4950495;28;20058;-65
2022/04/21 06:42:47;;;;;;;16.23;11.02;;;8.50;99.90;;;;;;4954923;28;20081;-61
2022/04/21 06:48:04;;;;;;;15.93;10.55;;;8.70;99.90;;;;;;4951420;28;20043;-61
2022/04/21 06:50:30;;;;;;;18.90;10.48;;;8.80;99.90;;;;;;4946755;28;20049;-60
2022/04/21 06:52:56;;;;;;;14.52;9.10;;;8.90;99.90;;;;;;4946532;28;20055;-60
2022/04/21 06:55:22;;;;;;;14.95;9.95;;;9.10;99.90;;;;;;4950091;28;20031;-59
2022/04/21 06:57:47;;;;;;;17.80;9.50;;;9.20;99.90;;;;;;4955597;28;20035;-59
2022/04/21 07:00:13;;;;;;;15.43;9.40;;;9.30;99.90;;;;;;4956094;29;20046;-61
2022/04/21 07:02:41;;;;;;;14.20;8.63;;;9.40;99.90;;;;;;4941707;28;20549;-61
2022/04/21 07:05:12;;;;;;;12.68;8.13;;;9.50;99.90;;;;;;4948288;28;20051;-62
2022/04/21 07:07:39;;;;;;;12.98;8.07;;;9.60;99.90;;;;;;4955551;28;20128;-61
2022/04/21 07:10:06;;;;;;;12.93;8.68;;;9.70;99.90;;;;;;4951637;28;20039;-60
2022/04/21 07:12:32;;;;;;;11.07;6.40;;;9.90;99.90;;;;;;4955138;28;20130;-61
2022/04/21 07:15:10;;;;;;;9.85;6.45;;;10.00;99.90;;;;;;4966514;28;20035;-59
2022/04/21 07:17:37;;;;;;;10.55;6.72;;;10.10;99.90;;;;;;4954456;28;20040;-58
2022/04/21 07:20:04;;;;;;;10.65;6.32;;;10.20;99.90;;;;;;4954943;28;20031;-59
2022/04/21 07:22:30;;;;;;;8.32;6.47;;;10.30;99.90;;;;;;4955172;28;20793;-61
2022/04/21 07:24:57;;;;;;;9.15;6.10;;;10.40;99.90;;;;;;4952303;28;20226;-61
2022/04/21 07:27:23;;;;;;;9.25;6.20;;;10.50;99.90;;;;;;4939228;28;20043;-61
2022/04/21 07:29:49;;;;;;;9.13;5.40;;;10.60;99.90;;;;;;4953605;28;20035;-60
2022/04/21 07:32:15;;;;;;;11.05;5.38;;;10.70;99.90;;;;;;4955445;29;20405;-59
2022/04/21 07:34:41;;;;;;;7.55;5.07;;;10.80;99.90;;;;;;4950993;28;20479;-60
2022/04/21 07:37:09;;;;;;;8.20;5.10;;;10.80;99.90;;;;;;4949832;28;20462;-60
2022/04/21 07:39:36;;;;;;;6.05;4.75;;;10.90;99.90;;;;;;4955087;28;20082;-60
2022/04/21 07:42:02;;;;;;;8.55;5.43;;;10.90;99.90;;;;;;4952842;28;20118;-60
2022/04/21 07:44:28;;;;;;;6.82;4.80;;;11.00;99.90;;;;;;4933210;28;20414;-60
2022/04/21 07:46:54;;;;;;;9.10;4.68;;;11.10;99.90;;;;;;4945899;28;20553;-61
2022/04/21 07:54:49;;;;;;;8.57;5.30;;;11.40;99.90;;;;;;4944112;28;20048;-59
2022/04/21 07:57:14;;;;;;;8.10;4.53;;;11.50;99.90;;;;;;4950906;28;20035;-60
2022/04/21 07:59:40;;;;;;;7.05;4.93;;;11.60;99.40;;;;;;4943247;28;20042;-61
2022/04/21 08:02:09;;;;;;;8.63;5.00;;;11.60;99.00;;;;;;4936342;29;20047;-60
2022/04/21 08:04:40;;;;;;;9.25;4.80;;;11.60;99.90;;;;;;4953927;28;20039;-60
2022/04/21 08:07:06;;;;;;;8.63;4.95;;;11.70;99.90;;;;;;4953620;28;20098;-60
2022/04/21 08:09:31;;;;;;;8.63;5.20;;;11.70;99.90;;;;;;4947954;28;20039;-59
2022/04/21 08:11:57;;;;;;;6.88;5.00;;;11.80;99.90;;;;;;4953969;28;20031;-60
2022/04/21 08:14:25;;;;;;;8.27;5.35;;;11.90;99.90;;;;;;4953648;28;20039;-61
2022/04/21 08:16:53;;;;;;;16.40;5.10;;;12.00;99.90;;;;;;4936831;28;20054;-60
2022/04/21 08:19:19;;;;;;;8.95;5.28;;;12.10;99.90;;;;;;4951743;28;20039;-60
2022/04/21 08:21:45;;;;;;;7.43;5.00;;;12.20;99.90;;;;;;4954115;28;20122;-60
2022/04/21 08:32:43;;;;;;;10.13;5.30;;;12.50;97.40;;;;;;4946296;28;20044;-59
2022/04/21 08:35:09;;;;;;;7.95;5.28;;;12.50;98.70;;;;;;4928237;29;20537;-61
2022/04/21 08:37:36;;;;;;;8.10;4.63;;;12.60;98.90;;;;;;4953507;28;20074;-61
2022/04/21 08:40:06;;;;;;;6.72;4.75;;;12.70;99.90;;;;;;4953392;28;20069;-61
2022/04/21 08:42:37;;;;;;;7.05;4.53;;;12.80;99.30;;;;;;4941848;28;20458;-60
2022/04/21 08:45:03;;;;;;;11.63;5.00;;;12.90;96.30;;;;;;4939180;28;20046;-60
2022/04/21 08:47:29;;;;;;;8.07;4.93;;;13.00;96.30;;;;;;4953516;28;20035;-60
2022/04/21 08:50:04;;;;;;;10.38;4.80;;;13.00;98.20;;;;;;4942009;28;20114;-61
2022/04/21 08:52:31;;;;;;;15.73;5.20;;;13.20;97.20;;;;;;4939157;28;20122;-61
2022/04/21 08:54:57;;;;;;;7.15;5.05;;;13.20;96.90;;;;;;4950439;28;20453;-61
2022/04/21 08:57:22;;;;;;;9.15;5.07;;;13.30;97.00;;;;;;4951275;29;20043;-61
2022/04/21 08:59:48;;;;;;;11.70;4.75;;;13.20;96.60;;;;;;4927899;28;20059;-60
2022/04/21 09:02:14;;;;;;;8.98;5.15;;;13.30;97.70;;;;;;4949658;28;20047;-61
2022/04/21 09:04:41;;;;;;;7.35;5.00;;;13.40;97.80;;;;;;4951648;28;20043;-60
2022/04/21 09:07:16;;;;;;;6.50;4.88;;;13.40;97.10;;;;;;4928972;29;20532;-60
2022/04/21 09:10:01;;;;;;;8.40;5.20;;;13.40;96.30;;;;;;4950216;28;20067;-61
2022/04/21 09:12:27;;;;;;;8.43;4.90;;;13.60;97.70;;;;;;4933846;29;20066;-61
2022/04/21 09:14:52;;;;;;;11.90;4.70;;;13.80;98.70;;;;;;4945613;28;20031;-60
2022/04/21 09:17:18;;;;;;;10.73;4.63;;;13.90;97.50;;;;;;4946139;28;20038;-60
2022/04/21 09:20:00;;;;;;;10.20;4.88;;;13.90;96.50;;;;;;4937937;28;20087;-60
2022/04/21 09:22:31;;;;;;;7.70;4.45;;;14.00;95.30;;;;;;4944859;28;20052;-60
2022/04/21 09:24:57;;;;;;;;;;;14.00;95.10;;;;;;4941922;28;20086;-61
2022/04/21 09:27:23;;;;;;;7.90;4.63;;;14.00;94.90;;;;;;4952815;28;19928;-61
2022/04/21 09:29:49;;;;;;;17.27;4.90;;;14.00;96.50;;;;;;4950247;28;20043;-63
2022/04/21 09:32:17;;;;;;;8.90;4.97;;;14.10;94.00;;;;;;4938730;28;20453;-60
2022/04/21 09:34:50;;;;;;;7.30;4.72;;;14.10;94.00;;;;;;4950468;28;20046;-61
2022/04/21 09:37:22;;;;;;;11.15;4.75;;;14.10;96.40;;;;;;4953281;28;20070;-61
2022/04/21 09:39:51;;;;;;;6.75;5.20;;;14.10;95.00;;;;;;4934161;28;20054;-60
2022/04/21 09:42:27;;;;;;;9.23;5.25;;;14.10;96.80;;;;;;4941676;28;20155;-60
2022/04/21 09:47:54;;;;;;;7.28;4.63;;;14.50;98.40;;;;;;4943338;28;20044;-61
2022/04/21 09:50:21;;;;;;;11.70;5.18;;;14.60;95.50;;;;;;4943768;28;20433;-60
2022/04/21 09:52:52;;;;;;;12.88;5.13;;;14.70;93.30;;;;;;4953370;28;20074;-60
2022/04/21 09:55:32;;;;;;;8.35;4.63;;;14.70;92.90;;;;;;4956133;28;20043;-60
2022/04/21 09:58:08;;;;;;;10.80;5.20;;;14.70;93.70;;;;;;4967317;28;20473;-59
2022/04/21 10:00:39;;;;;;;6.40;4.97;;;14.80;93.10;;;;;;4959625;28;20043;-60
2022/04/21 10:03:05;;;;;;;11.50;5.05;;;14.90;96.30;;;;;;4955690;29;20110;-58
2022/04/21 10:05:33;;;;;;;6.30;4.53;;;15.00;92.10;;;;;;4937586;29;20094;-59
2022/04/21 10:08:04;;;;;;;6.97;4.88;;;14.90;92.90;;;;;;4942737;28;20069;-60
2022/04/21 10:10:30;;;;;;;7.53;4.78;;;15.00;94.50;;;;;;4948894;28;20070;-61
2022/04/21 10:12:57;;;;;;;7.75;4.75;;;15.00;92.70;;;;;;4942421;28;20051;-61
2022/04/21 10:15:24;;;;;;;6.38;4.80;;;15.00;93.10;;;;;;4944282;28;20035;-61
2022/04/21 10:17:49;;;;;;;8.98;5.07;;;15.00;91.80;;;;;;4951513;28;20043;-60
2022/04/21 10:20:15;;;;;;;7.43;5.47;;;15.10;94.30;;;;;;4953773;28;20039;-61
2022/04/21 10:22:41;;;;;;;11.68;5.25;;;15.10;94.60;;;;;;4956279;28;20042;-60
2022/04/21 10:25:08;;;;;;;8.05;5.13;;;15.20;95.50;;;;;;4951142;28;20035;-61
2022/04/21 10:27:46;;;;;;;6.15;4.88;;;15.20;92.30;;;;;;4952094;28;20046;-61
2022/04/21 10:30:16;;;;;;;7.63;4.35;;;15.30;91.00;;;;;;4941029;28;20035;-60
2022/04/21 10:32:48;;;;;;;7.22;5.05;;;15.40;93.80;;;;;;4955609;28;20039;-61
2022/04/21 10:35:19;;;;;;;9.68;5.55;;;15.40;93.10;;;;;;4956557;28;20050;-60
2022/04/21 10:37:44;;;;;;;9.53;5.60;;;15.50;92.70;;;;;;4956470;28;20489;-60
2022/04/21 10:40:11;;;;;;;14.27;5.78;;;15.70;95.10;;;;;;4947560;28;20287;-59
2022/04/21 10:42:52;;;;;;;7.40;5.28;;;15.80;94.50;;;;;;4952288;28;20504;-61
2022/04/21 10:45:28;;;;;;;7.53;5.10;;;15.90;93.50;;;;;;4953828;28;20055;-60
2022/04/21 11:16:41;;;;;;;10.27;5.30;;;16.30;91.90;;;;;;5076401;23;20049;-60
2022/04/21 11:19:29;;;;;;;6.82;4.82;;;16.60;93.70;;;;;;4964403;28;20050;-60
2022/04/21 11:21:59;;;;;;;6.90;4.90;;;16.50;80.30;;;;;;4973823;28;20030;-60
2022/04/21 11:24:28;;;;;;;8.90;4.38;;;16.60;89.50;;;;;;4959510;28;20039;-60
2022/04/21 11:39:50;;;;;;;8.27;4.90;;;16.80;82.80;;;;;;5439865;23;20510;-61
2022/04/21 11:42:27;;;;;;;6.47;4.40;;;16.80;75.10;;;;;;4945598;28;20050;-60
2022/04/21 11:44:54;;;;;;;6.35;4.93;;;16.90;74.40;;;;;;4952272;29;20035;-61
2022/04/21 11:47:20;;;;;;;9.82;4.97;;;16.60;73.30;;;;;;4954706;29;20442;-60
2022/04/21 12:08:39;;;;;;;8.05;5.88;;;17.10;86.10;;;;;;4913816;29;20052;-58
2022/04/21 12:24:38;;;;;;;7.88;6.13;;;17.40;88.30;;;;;;5964592;23;20124;-59
2022/04/21 12:27:12;;;;;;;8.48;6.22;;;17.20;77.50;;;;;;4947887;28;20043;-58
2022/04/21 12:29:51;;;;;;;7.03;5.60;;;17.00;77.20;;;;;;4950303;29;20098;-59
2022/04/21 12:32:27;;;;;;;8.13;5.68;;;17.00;79.30;;;;;;4953850;28;20085;-61
2022/04/21 12:34:56;;;;;;;10.00;6.05;;;16.80;79.60;;;;;;4953650;28;20078;-61
2022/04/21 12:42:58;;;;;;;7.60;5.50;;;16.90;75.60;;;;;;5705922;23;20043;-60
2022/04/21 12:45:24;;;;;;;8.20;5.65;;;16.90;75.30;;;;;;4966082;28;20046;-60
2022/04/21 12:47:50;;;;;;;9.07;5.25;;;17.10;77.00;;;;;;4963445;28;20039;-60
2022/04/21 12:50:23;;;;;;;9.82;5.35;;;17.40;80.40;;;;;;4954317;29;20119;-60
2022/04/21 12:55:27;;;;;;;9.13;5.50;;;18.00;76.20;;;;;;5579740;23;20514;-58
2022/04/21 12:58:11;;;;;;;6.85;5.18;;;18.10;70.70;;;;;;4914735;29;20052;-58
2022/04/21 13:00:41;;;;;;;8.68;5.40;;;18.40;81.70;;;;;;4915645;29;20048;-60
2022/04/21 13:03:10;;;;;;;9.32;6.03;;;18.70;73.70;;;;;;4917670;29;20047;-60
2022/04/21 13:05:49;;;;;;;9.52;6.20;;;18.60;74.60;;;;;;4933897;29;20040;-60
2022/04/21 13:13:29;;;;;;;8.05;5.47;;;18.30;71.40;;;;;;5490574;23;20042;-58
2022/04/21 13:15:55;;;;;;;9.85;5.53;;;18.20;73.90;;;;;;4965643;28;20097;-58
2022/04/21 13:18:21;;;;;;;7.75;6.00;;;18.00;76.90;;;;;;4963664;28;20034;-58
2022/04/21 13:23:31;;;;;;;12.98;5.80;;;18.50;83.40;;;;;;4953204;28;20047;-58
2022/04/21 13:25:58;;;;;;;8.38;5.45;;;18.60;74.50;;;;;;4950328;28;20035;-58
2022/04/21 13:28:24;;;;;;;9.98;5.53;;;18.80;72.40;;;;;;4952142;28;20073;-58
2022/04/21 13:33:21;;;;;;;8.38;5.22;;;18.70;71.00;;;;;;5178359;23;20026;-58
2022/04/21 13:33:35;;;;;;;7.65;5.18;;;18.60;70.50;;;;;;4948655;29;20051;-58
2022/04/21 13:36:01;;;;;;;11.23;5.13;;;18.40;76.30;;;;;;4953058;29;20049;-59
2022/04/21 13:41:02;;;;;;;8.52;5.32;;;18.10;72.30;;;;;;6061717;23;20036;-58
2022/04/21 13:43:28;;;;;;;14.40;5.82;;;18.50;74.80;;;;;;4987677;28;20121;-59
2022/04/21 13:45:55;;;;;;;7.70;5.57;;;18.50;74.30;;;;;;4990982;28;20049;-58
2022/04/21 13:48:21;;;;;;;8.73;5.25;;;19.00;78.10;;;;;;4955189;28;20066;-58
2022/04/21 13:50:47;;;;;;;7.25;5.40;;;19.50;77.40;;;;;;4935511;28;20490;-58
2022/04/21 13:53:12;;;;;;;8.65;5.38;;;19.70;74.50;;;;;;4971790;28;20448;-58
2022/04/21 13:55:38;;;;;;;12.50;5.78;;;19.80;72.70;;;;;;4972405;28;20116;-58
2022/04/21 13:58:04;;;;;;;6.85;5.68;;;20.00;79.40;;;;;;4968307;28;20046;-58
2022/04/21 14:18:53;;;;;;;14.55;6.30;;;18.90;72.80;;;;;;5454909;23;20070;-58
2022/04/21 14:21:20;;;;;;;9.73;6.15;;;18.90;68.30;;;;;;4965577;28;20399;-56
2022/04/21 14:23:45;;;;;;;8.65;5.82;;;18.90;67.60;;;;;;4960882;28;20047;-58
2022/04/21 14:26:12;;;;;;;8.75;5.70;;;19.10;75.50;;;;;;4972032;28;20423;-58
2022/04/21 14:28:39;;;;;;;11.65;5.80;;;19.00;66.80;;;;;;4972084;28;20062;-58
2022/04/21 14:31:09;;;;;;;11.07;5.70;;;19.00;74.20;;;;;;4972426;28;20043;-58
2022/04/21 14:57:02;;;;;;;11.43;5.95;;;20.30;66.60;;;;;;5438225;23;20042;-59
2022/04/21 14:59:28;;;;;;;10.68;6.05;;;20.30;63.50;;;;;;4972038;28;20053;-59
2022/04/21 15:01:54;;;;;;;13.57;6.28;;;20.00;61.80;;;;;;4974219;28;20039;-59
2022/04/21 15:04:19;;;;;;;8.73;6.25;;;20.10;61.40;;;;;;4974767;28;20039;-59
2022/04/21 15:06:48;;;;;;;8.93;5.80;;;19.80;63.20;;;;;;4975235;28;20074;-58
2022/04/21 15:09:14;;;;;;;10.68;6.03;;;19.80;60.90;;;;;;4971852;28;20043;-57
2022/04/21 15:11:41;;;;;;;11.98;6.50;;;20.30;61.60;;;;;;4975116;28;20522;-58
2022/04/21 15:14:08;;;;;;;9.77;6.38;;;21.00;64.00;;;;;;4971002;28;20121;-59
2022/04/21 15:16:33;;;;;;;10.73;6.50;;;21.60;61.40;;;;;;4972071;28;20049;-58
2022/04/21 15:19:00;;;;;;;12.27;6.25;;;21.80;59.80;;;;;;4973910;28;20114;-58
2022/04/21 15:21:25;;;;;;;10.30;5.93;;;21.50;57.00;;;;;;4972287;28;20031;-59
2022/04/21 15:23:51;;;;;;;11.82;6.30;;;21.40;56.30;;;;;;4965716;28;20567;-59
2022/04/21 15:26:17;;;;;;;11.07;6.38;;;21.10;57.60;;;;;;4957933;28;20054;-59
2022/04/21 15:28:43;;;;;;;9.02;6.18;;;20.90;58.30;;;;;;4965172;28;20580;-59
2022/04/21 15:31:09;;;;;;;8.70;6.05;;;20.60;58.70;;;;;;4970238;28;20039;-58
2022/04/21 15:33:34;;;;;;;11.93;6.15;;;20.90;59.60;;;;;;4967421;28;20070;-59
2022/04/21 15:36:00;;;;;;;9.50;5.60;;;21.10;60.30;;;;;;4970174;28;20062;-59
2022/04/21 15:38:26;;;;;;;9.23;5.93;;;20.90;58.20;;;;;;4970821;28;20097;-59
2022/04/21 15:40:51;;;;;;;12.02;6.00;;;21.10;56.10;;;;;;4967382;28;20054;-58
2022/04/21 15:43:17;;;;;;;12.95;7.00;;;20.80;56.10;;;;;;4969936;28;20404;-59
2022/04/21 15:45:44;;;;;;;14.68;7.20;;;20.60;57.20;;;;;;4967360;28;20046;-60